createdAt,value
2023-05-22T00:00:06.853Z,92.76
2023-05-22T00:01:06.903Z,92.96
2023-05-22T00:02:06.865Z,92.96
2023-05-22T00:03:06.942Z,92.76
2023-05-22T00:04:06.872Z,93.07
2023-05-22T00:05:06.895Z,92.26
2023-05-22T00:06:06.802Z,92.56
2023-05-22T00:07:06.778Z,92.66
2023-05-22T00:08:06.776Z,92.66
2023-05-22T00:09:06.785Z,93.07
2023-05-22T00:10:06.843Z,92.46
2023-05-22T00:11:06.764Z,92.96
2023-05-22T00:12:06.739Z,92.26
2023-05-22T00:13:06.710Z,92.56
2023-05-22T00:14:06.729Z,92.26
2023-05-22T00:15:06.690Z,91.75
2023-05-22T00:16:06.670Z,92.16
2023-05-22T00:17:06.816Z,92.26
2023-05-22T00:18:06.787Z,92.36
2023-05-22T00:19:06.642Z,92.56
2023-05-22T00:20:06.650Z,92.26
2023-05-22T00:21:06.617Z,92.30
2023-05-22T00:22:06.630Z,92.30
2023-05-22T00:23:06.695Z,93.11
2023-05-22T00:24:06.611Z,92.50
2023-05-22T00:25:06.621Z,92.56
2023-05-22T00:26:06.573Z,93.21
2023-05-22T00:27:06.581Z,92.40
2023-05-22T00:28:06.538Z,93.01
2023-05-22T00:29:06.528Z,92.91
2023-05-22T00:30:06.543Z,92.60
2023-05-22T00:31:06.502Z,92.80
2023-05-22T00:32:06.556Z,92.71
2023-05-22T00:33:06.564Z,93.01
2023-05-22T00:34:06.521Z,93.11
2023-05-22T00:35:06.491Z,92.95
2023-05-22T00:36:06.454Z,93.21
2023-05-22T00:37:06.486Z,92.60
2023-05-22T00:38:06.463Z,92.60
2023-05-22T00:39:06.426Z,92.71
2023-05-22T00:40:06.443Z,92.80
2023-05-22T00:41:06.417Z,92.80
2023-05-22T00:42:06.547Z,92.80
2023-05-22T00:43:06.423Z,92.45
2023-05-22T00:44:06.399Z,92.95
2023-05-22T00:45:06.393Z,92.60
2023-05-22T00:46:06.381Z,92.55
2023-05-22T00:47:06.408Z,92.65
2023-05-22T00:48:06.429Z,93.46
2023-05-22T00:49:06.335Z,92.65
2023-05-22T00:50:06.374Z,92.45
2023-05-22T00:51:06.284Z,92.71
2023-05-22T00:52:06.299Z,92.85
2023-05-22T00:53:06.263Z,92.71
2023-05-22T00:54:06.263Z,92.95
2023-05-22T00:55:06.380Z,92.85
2023-05-22T00:56:06.230Z,93.05
2023-05-22T00:57:06.304Z,92.85
2023-05-22T00:58:06.217Z,92.95
2023-05-22T00:59:06.323Z,93.05
2023-05-22T01:00:06.321Z,92.65
2023-05-22T01:01:06.176Z,92.55
2023-05-22T01:02:06.359Z,92.75
2023-05-22T01:03:06.278Z,93.05
2023-05-22T01:04:06.190Z,92.65
2023-05-22T01:05:06.232Z,92.35
2023-05-22T01:06:06.130Z,92.75
2023-05-22T01:07:06.162Z,93.05
2023-05-22T01:08:06.111Z,92.75
2023-05-22T01:09:06.094Z,92.95
2023-05-22T01:10:06.228Z,92.55
2023-05-22T01:11:06.060Z,92.85
2023-05-22T01:12:06.086Z,93.15
2023-05-22T01:13:06.050Z,93.15
2023-05-22T01:14:06.034Z,92.79
2023-05-22T01:15:06.199Z,93.15
2023-05-22T01:16:06.040Z,93.05
2023-05-22T01:17:06.004Z,92.49
2023-05-22T01:18:06.030Z,92.79
2023-05-22T01:19:06.026Z,92.75
2023-05-22T01:20:06.074Z,93.19
2023-05-22T01:21:05.948Z,93.15
2023-05-22T01:22:05.954Z,93.19
2023-05-22T01:23:05.976Z,92.79
2023-05-22T01:24:05.917Z,92.65
2023-05-22T01:25:05.915Z,92.90
2023-05-22T01:26:05.939Z,93.19
2023-05-22T01:27:05.883Z,92.65
2023-05-22T01:28:05.889Z,92.35
2023-05-22T01:29:05.880Z,92.19
2023-05-22T01:30:05.871Z,92.39
2023-05-22T01:31:05.937Z,92.99
2023-05-22T01:32:05.852Z,92.90
2023-05-22T01:33:05.908Z,92.09
2023-05-22T01:34:05.864Z,92.99
2023-05-22T01:35:05.806Z,92.29
2023-05-22T01:36:05.798Z,92.19
2023-05-22T01:37:05.789Z,92.39
2023-05-22T01:38:05.801Z,92.29
2023-05-22T01:39:05.767Z,92.29
2023-05-22T01:40:05.773Z,91.89
2023-05-22T01:41:05.733Z,92.19
2023-05-22T01:42:05.718Z,92.19
2023-05-22T01:43:05.721Z,92.09
2023-05-22T01:44:05.718Z,92.69
2023-05-22T01:45:05.729Z,91.89
2023-05-22T01:46:05.701Z,91.99
2023-05-22T01:47:05.698Z,91.89
2023-05-22T01:48:05.723Z,91.99
2023-05-22T01:49:05.657Z,92.13
2023-05-22T01:50:05.705Z,91.89
2023-05-22T01:51:05.634Z,92.09
2023-05-22T01:52:05.612Z,91.69
2023-05-22T01:53:05.617Z,92.19
2023-05-22T01:54:05.582Z,91.08
2023-05-22T01:55:05.609Z,91.49
2023-05-22T01:56:05.613Z,91.18
2023-05-22T01:57:05.569Z,91.38
2023-05-22T01:58:05.556Z,90.78
2023-05-22T01:59:05.534Z,91.08
2023-05-22T02:00:05.529Z,90.98
2023-05-22T02:01:05.561Z,90.88
2023-05-22T02:02:05.565Z,91.08
2023-05-22T02:03:05.652Z,90.98
2023-05-22T02:04:05.483Z,91.08
2023-05-22T02:05:05.471Z,90.98
2023-05-22T02:06:05.454Z,91.08
2023-05-22T02:07:05.474Z,91.22
2023-05-22T02:08:05.428Z,90.82
2023-05-22T02:09:05.439Z,91.08
2023-05-22T02:10:05.405Z,91.22
2023-05-22T02:11:05.415Z,91.02
2023-05-22T02:12:05.411Z,91.02
2023-05-22T02:13:05.395Z,91.22
2023-05-22T02:14:05.364Z,91.13
2023-05-22T02:15:05.415Z,90.88
2023-05-22T02:16:05.367Z,91.13
2023-05-22T02:17:05.332Z,91.63
2023-05-22T02:18:05.386Z,91.22
2023-05-22T02:19:05.405Z,91.22
2023-05-22T02:20:05.327Z,91.33
2023-05-22T02:21:05.302Z,91.22
2023-05-22T02:22:05.288Z,91.22
2023-05-22T02:23:05.280Z,91.53
2023-05-22T02:24:05.250Z,91.53
2023-05-22T02:25:05.254Z,91.22
2023-05-22T02:26:05.256Z,91.83
2023-05-22T02:27:05.228Z,91.33
2023-05-22T02:28:05.219Z,92.33
2023-05-22T02:29:05.234Z,92.23
2023-05-22T02:30:05.199Z,91.73
2023-05-22T02:31:05.218Z,91.87
2023-05-22T02:32:05.161Z,91.77
2023-05-22T02:33:05.185Z,91.73
2023-05-22T02:34:05.153Z,91.87
2023-05-22T02:35:05.168Z,91.53
2023-05-22T02:36:05.176Z,91.77
2023-05-22T02:37:05.133Z,91.87
2023-05-22T02:38:05.089Z,91.97
2023-05-22T02:39:05.083Z,91.97
2023-05-22T02:40:05.095Z,91.97
2023-05-22T02:41:05.080Z,92.07
2023-05-22T02:42:05.064Z,92.07
2023-05-22T02:43:05.052Z,92.18
2023-05-22T02:44:05.039Z,92.18
2023-05-22T02:45:05.027Z,92.68
2023-05-22T02:46:05.057Z,92.18
2023-05-22T02:47:05.003Z,92.27
2023-05-22T02:48:04.997Z,92.38
2023-05-22T02:49:04.981Z,92.07
2023-05-22T02:50:04.964Z,92.27
2023-05-22T02:51:04.994Z,92.47
2023-05-22T02:52:04.944Z,92.07
2023-05-22T02:53:04.926Z,91.97
2023-05-22T02:54:04.923Z,92.38
2023-05-22T02:55:04.921Z,92.38
2023-05-22T02:56:04.909Z,92.47
2023-05-22T02:57:04.876Z,91.97
2023-05-22T02:58:04.859Z,92.58
2023-05-22T02:59:04.866Z,93.02
2023-05-22T03:00:04.835Z,91.97
2023-05-22T03:01:04.844Z,92.42
2023-05-22T03:02:05.013Z,92.58
2023-05-22T03:03:04.943Z,91.97
2023-05-22T03:04:04.874Z,92.98
2023-05-22T03:05:04.797Z,93.08
2023-05-22T03:06:04.765Z,92.88
2023-05-22T03:07:04.784Z,92.98
2023-05-22T03:08:04.772Z,93.13
2023-05-22T03:09:04.778Z,93.08
2023-05-22T03:10:04.740Z,92.82
2023-05-22T03:11:04.728Z,93.13
2023-05-22T03:12:04.722Z,93.13
2023-05-22T03:13:04.706Z,93.69
2023-05-22T03:14:04.688Z,94.29
2023-05-22T03:15:04.696Z,93.18
2023-05-22T03:16:04.709Z,94.19
2023-05-22T03:17:04.667Z,93.73
2023-05-22T03:18:04.645Z,93.38
2023-05-22T03:19:04.722Z,93.38
2023-05-22T03:20:04.608Z,93.63
2023-05-22T03:21:04.599Z,93.59
2023-05-22T03:22:04.611Z,93.53
2023-05-22T03:23:04.613Z,94.04
2023-05-22T03:24:04.566Z,94.13
2023-05-22T03:25:04.619Z,94.13
2023-05-22T03:26:04.580Z,93.63
2023-05-22T03:27:04.534Z,93.84
2023-05-22T03:28:04.547Z,93.84
2023-05-22T03:29:04.565Z,94.13
2023-05-22T03:30:04.499Z,94.24
2023-05-22T03:31:04.531Z,94.13
2023-05-22T03:32:04.504Z,94.44
2023-05-22T03:33:04.516Z,94.24
2023-05-22T03:34:04.520Z,94.44
2023-05-22T03:35:04.447Z,94.44
2023-05-22T03:36:04.456Z,94.04
2023-05-22T03:37:04.446Z,94.04
2023-05-22T03:38:04.434Z,94.44
2023-05-22T03:39:04.440Z,94.34
2023-05-22T03:40:04.404Z,94.13
2023-05-22T03:41:04.381Z,93.98
2023-05-22T03:42:04.380Z,94.24
2023-05-22T03:43:04.378Z,94.13
2023-05-22T03:44:04.343Z,94.64
2023-05-22T03:45:04.350Z,95.04
2023-05-22T03:46:04.352Z,94.74
2023-05-22T03:47:04.318Z,94.74
2023-05-22T03:48:04.389Z,94.84
2023-05-22T03:49:04.304Z,94.74
2023-05-22T03:50:04.305Z,94.44
2023-05-22T03:51:04.296Z,94.84
2023-05-22T03:52:04.255Z,94.64
2023-05-22T03:53:04.237Z,95.09
2023-05-22T03:54:04.233Z,94.54
2023-05-22T03:55:04.252Z,94.54
2023-05-22T03:56:04.237Z,94.84
2023-05-22T03:57:04.200Z,94.84
2023-05-22T03:58:04.173Z,94.54
2023-05-22T03:59:04.183Z,94.64
2023-05-22T04:00:04.156Z,94.54
2023-05-22T04:01:04.179Z,94.84
2023-05-22T04:02:04.186Z,95.45
2023-05-22T04:03:04.193Z,95.45
2023-05-22T04:04:04.124Z,94.64
2023-05-22T04:05:04.156Z,94.44
2023-05-22T04:06:04.087Z,94.94
2023-05-22T04:07:04.109Z,94.64
2023-05-22T04:08:04.072Z,94.74
2023-05-22T04:09:04.054Z,94.74
2023-05-22T04:10:04.059Z,94.44
2023-05-22T04:11:04.071Z,94.84
2023-05-22T04:12:04.055Z,94.74
2023-05-22T04:13:04.002Z,94.44
2023-05-22T04:14:04.005Z,94.94
2023-05-22T04:15:03.986Z,94.64
2023-05-22T04:16:04.037Z,95.04
2023-05-22T04:17:03.991Z,94.94
2023-05-22T04:18:03.970Z,94.74
2023-05-22T04:19:04.023Z,94.94
2023-05-22T04:20:03.921Z,95.65
2023-05-22T04:21:03.948Z,94.84
2023-05-22T04:22:03.899Z,95.14
2023-05-22T04:23:03.894Z,94.68
2023-05-22T04:24:03.887Z,94.68
2023-05-22T04:25:03.881Z,94.84
2023-05-22T04:26:03.854Z,94.64
2023-05-22T04:27:03.898Z,94.64
2023-05-22T04:28:03.834Z,94.84
2023-05-22T04:29:03.821Z,94.84
2023-05-22T04:30:03.819Z,94.94
2023-05-22T04:31:03.841Z,94.44
2023-05-22T04:32:03.801Z,94.84
2023-05-22T04:33:03.823Z,94.54
2023-05-22T04:34:03.762Z,94.84
2023-05-22T04:35:03.778Z,94.84
2023-05-22T04:36:03.741Z,95.04
2023-05-22T04:37:03.742Z,94.94
2023-05-22T04:38:03.824Z,94.64
2023-05-22T04:39:03.707Z,94.54
2023-05-22T04:40:03.690Z,95.14
2023-05-22T04:41:03.686Z,94.74
2023-05-22T04:42:03.682Z,94.94
2023-05-22T04:43:03.724Z,94.74
2023-05-22T04:44:03.673Z,94.64
2023-05-22T04:45:03.652Z,94.64
2023-05-22T04:46:03.622Z,93.93
2023-05-22T04:47:06.004Z,93.93
2023-05-22T04:48:03.629Z,94.13
2023-05-22T04:49:03.622Z,94.54
2023-05-22T04:50:03.575Z,95.14
2023-05-22T04:51:03.572Z,94.84
2023-05-22T04:52:03.575Z,94.94
2023-05-22T04:53:03.549Z,94.84
2023-05-22T04:54:03.544Z,94.59
2023-05-22T04:55:05.964Z,94.49
2023-05-22T04:56:03.516Z,94.70
2023-05-22T04:57:03.527Z,94.90
2023-05-22T04:58:03.491Z,95.00
2023-05-22T04:59:03.516Z,93.85
2023-05-22T05:00:03.486Z,94.05
2023-05-22T05:01:03.509Z,93.95
2023-05-22T05:02:03.453Z,93.49
2023-05-22T05:03:03.497Z,94.35
2023-05-22T05:04:03.683Z,93.65
2023-05-22T05:05:03.428Z,93.34
2023-05-22T05:06:03.399Z,93.04
2023-05-22T05:07:03.415Z,93.14
2023-05-22T05:08:03.367Z,92.79
2023-05-22T05:09:03.383Z,92.63
2023-05-22T05:10:03.352Z,92.43
2023-05-22T05:11:03.375Z,92.33
2023-05-22T05:12:03.327Z,91.99
2023-05-22T05:13:03.329Z,92.03
2023-05-22T05:14:03.316Z,91.63
2023-05-22T05:15:03.326Z,91.49
2023-05-22T05:16:03.321Z,91.69
2023-05-22T05:17:03.343Z,91.78
2023-05-22T05:18:03.292Z,91.38
2023-05-22T05:19:03.276Z,91.08
2023-05-22T05:20:03.251Z,90.68
2023-05-22T05:21:03.241Z,90.53
2023-05-22T05:22:03.228Z,90.73
2023-05-22T05:23:03.207Z,90.73
2023-05-22T05:24:03.191Z,90.13
2023-05-22T05:25:03.179Z,89.93
2023-05-22T05:26:03.179Z,90.03
2023-05-22T05:27:03.181Z,89.79
2023-05-22T05:28:03.144Z,90.03
2023-05-22T05:29:03.151Z,90.19
2023-05-22T05:30:03.129Z,89.28
2023-05-22T05:31:03.146Z,89.59
2023-05-22T05:32:03.198Z,89.59
2023-05-22T05:33:03.154Z,89.08
2023-05-22T05:34:03.088Z,88.78
2023-05-22T05:35:03.102Z,89.39
2023-05-22T05:36:03.056Z,88.58
2023-05-22T05:37:03.170Z,88.54
2023-05-22T05:38:03.046Z,88.43
2023-05-22T05:39:03.025Z,87.83
2023-05-22T05:40:03.021Z,88.13
2023-05-22T05:41:03.035Z,88.34
2023-05-22T05:42:03.008Z,87.73
2023-05-22T05:43:03.017Z,87.29
2023-05-22T05:44:02.982Z,87.19
2023-05-22T05:45:02.966Z,87.49
2023-05-22T05:46:02.973Z,87.69
2023-05-22T05:47:02.972Z,87.19
2023-05-22T05:48:02.967Z,86.79
2023-05-22T05:49:02.913Z,87.49
2023-05-22T05:50:02.913Z,87.29
2023-05-22T05:51:02.900Z,86.94
2023-05-22T05:52:02.905Z,87.04
2023-05-22T05:53:02.869Z,86.99
2023-05-22T05:54:02.868Z,86.54
2023-05-22T05:55:02.877Z,86.94
2023-05-22T05:56:02.847Z,86.54
2023-05-22T05:57:02.845Z,87.04
2023-05-22T05:58:02.831Z,86.14
2023-05-22T05:59:02.816Z,85.84
2023-05-22T06:00:02.886Z,85.70
2023-05-22T06:01:02.779Z,86.24
2023-05-22T06:02:02.791Z,85.80
2023-05-22T06:03:02.877Z,85.90
2023-05-22T06:04:02.848Z,86.10
2023-05-22T06:05:02.784Z,85.80
2023-05-22T06:06:02.756Z,85.80
2023-05-22T06:07:02.734Z,85.70
2023-05-22T06:08:02.717Z,85.10
2023-05-22T06:09:02.687Z,84.99
2023-05-22T06:10:02.698Z,85.70
2023-05-22T06:11:02.675Z,85.60
2023-05-22T06:12:02.673Z,85.50
2023-05-22T06:13:02.644Z,85.70
2023-05-22T06:14:02.649Z,85.90
2023-05-22T06:15:02.623Z,85.50
2023-05-22T06:16:06.420Z,85.25
2023-05-22T06:17:02.673Z,85.70
2023-05-22T06:18:02.653Z,85.80
2023-05-22T06:19:02.638Z,85.25
2023-05-22T06:20:02.567Z,85.16
2023-05-22T06:21:02.577Z,85.46
2023-05-22T06:22:02.567Z,85.36
2023-05-22T06:23:02.553Z,85.05
2023-05-22T06:24:02.551Z,84.85
2023-05-22T06:25:02.511Z,84.95
2023-05-22T06:26:02.528Z,85.25
2023-05-22T06:27:02.524Z,85.05
2023-05-22T06:28:02.494Z,84.81
2023-05-22T06:29:02.482Z,84.81
2023-05-22T06:30:04.311Z,85.11
2023-05-22T06:31:02.448Z,83.91
2023-05-22T06:32:02.534Z,84.21
2023-05-22T06:33:02.567Z,84.25
2023-05-22T06:34:02.594Z,84.45
2023-05-22T06:35:02.441Z,84.35
2023-05-22T06:36:02.411Z,84.85
2023-05-22T06:37:02.581Z,85.11
2023-05-22T06:38:02.372Z,84.61
2023-05-22T06:39:02.395Z,84.01
2023-05-22T06:40:02.353Z,83.27
2023-05-22T06:41:02.345Z,83.71
2023-05-22T06:42:02.369Z,84.11
2023-05-22T06:43:02.331Z,83.97
2023-05-22T06:44:02.320Z,83.47
2023-05-22T06:45:02.308Z,83.47
2023-05-22T06:46:02.318Z,83.17
2023-05-22T06:47:02.287Z,83.17
2023-05-22T06:48:02.343Z,82.97
2023-05-22T06:49:02.246Z,82.97
2023-05-22T06:50:02.247Z,82.67
2023-05-22T06:51:02.270Z,82.97
2023-05-22T06:52:04.509Z,83.17
2023-05-22T06:53:02.210Z,82.73
2023-05-22T06:54:02.210Z,82.87
2023-05-22T06:55:02.190Z,83.33
2023-05-22T06:56:02.180Z,82.23
2023-05-22T06:57:02.190Z,82.03
2023-05-22T06:58:02.165Z,81.93
2023-05-22T06:59:02.139Z,82.29
2023-05-22T07:00:02.167Z,81.99
2023-05-22T07:01:02.244Z,81.79
2023-05-22T07:02:02.137Z,81.88
2023-05-22T07:03:02.154Z,81.48
2023-05-22T07:04:02.093Z,81.35
2023-05-22T07:05:02.095Z,81.15
2023-05-22T07:06:02.226Z,81.15
2023-05-22T07:07:02.178Z,80.80
2023-05-22T07:08:02.036Z,80.51
2023-05-22T07:09:02.031Z,80.30
2023-05-22T07:10:02.061Z,79.60
2023-05-22T07:11:02.028Z,79.57
2023-05-22T07:12:02.012Z,79.86
2023-05-22T07:13:01.985Z,79.77
2023-05-22T07:14:01.983Z,79.86
2023-05-22T07:15:01.991Z,80.27
2023-05-22T07:16:01.992Z,79.86
2023-05-22T07:17:01.949Z,79.03
2023-05-22T07:18:02.053Z,79.29
2023-05-22T07:19:01.949Z,78.09
2023-05-22T07:20:01.901Z,78.09
2023-05-22T07:21:01.896Z,77.86
2023-05-22T07:22:01.926Z,77.56
2023-05-22T07:23:02.096Z,77.22
2023-05-22T07:24:01.855Z,76.72
2023-05-22T07:25:01.857Z,77.12
2023-05-22T07:26:01.836Z,76.18
2023-05-22T07:27:01.834Z,75.89
2023-05-22T07:28:01.837Z,75.98
2023-05-22T07:29:01.798Z,75.38
2023-05-22T07:30:01.789Z,75.59
2023-05-22T07:31:01.789Z,74.58
2023-05-22T07:32:01.859Z,74.75
2023-05-22T07:33:01.809Z,75.15
2023-05-22T07:34:01.764Z,74.65
2023-05-22T07:35:01.730Z,75.25
2023-05-22T07:36:01.727Z,74.35
2023-05-22T07:37:01.729Z,74.75
2023-05-22T07:38:01.731Z,73.82
2023-05-22T07:39:01.725Z,74.32
2023-05-22T07:40:01.697Z,73.95
2023-05-22T07:41:01.680Z,74.41
2023-05-22T07:42:02.116Z,74.51
2023-05-22T07:43:01.669Z,73.88
2023-05-22T07:44:01.652Z,73.58
2023-05-22T07:45:01.618Z,72.88
2023-05-22T07:46:01.671Z,72.68
2023-05-22T07:47:01.609Z,72.98
2023-05-22T07:48:01.635Z,73.58
2023-05-22T07:49:01.587Z,74.11
2023-05-22T07:50:01.570Z,73.61
2023-05-22T07:51:01.559Z,73.61
2023-05-22T07:52:01.589Z,73.75
2023-05-22T07:53:01.537Z,73.55
2023-05-22T07:54:01.595Z,73.85
2023-05-22T07:55:01.541Z,73.95
2023-05-22T07:56:01.497Z,74.29
2023-05-22T07:57:01.532Z,74.55
2023-05-22T07:58:01.476Z,74.65
2023-05-22T07:59:01.466Z,74.58
2023-05-22T08:00:01.456Z,74.49
2023-05-22T08:01:01.449Z,75.28
2023-05-22T08:02:01.489Z,74.68
2023-05-22T08:03:01.553Z,74.58
2023-05-22T08:04:01.571Z,75.09
2023-05-22T08:05:01.464Z,74.68
2023-05-22T08:06:01.412Z,74.65
2023-05-22T08:07:01.385Z,74.68
2023-05-22T08:08:01.392Z,74.58
2023-05-22T08:09:01.349Z,74.38
2023-05-22T08:10:01.375Z,74.58
2023-05-22T08:11:04.248Z,74.98
2023-05-22T08:12:01.338Z,73.69
2023-05-22T08:13:01.359Z,74.68
2023-05-22T08:14:01.303Z,74.58
2023-05-22T08:15:01.320Z,74.29
2023-05-22T08:16:01.637Z,75.28
2023-05-22T08:17:01.301Z,74.88
2023-05-22T08:18:01.327Z,74.58
2023-05-22T08:19:01.407Z,74.68
2023-05-22T08:20:01.361Z,74.62
2023-05-22T08:21:01.215Z,74.92
2023-05-22T08:22:01.207Z,75.62
2023-05-22T08:23:01.201Z,75.72
2023-05-22T08:24:01.219Z,76.12
2023-05-22T08:25:01.184Z,76.52
2023-05-22T08:26:01.166Z,76.22
2023-05-22T08:27:04.183Z,76.32
2023-05-22T08:28:01.150Z,76.32
2023-05-22T08:29:01.133Z,76.22
2023-05-22T08:30:01.161Z,76.22
2023-05-22T08:31:01.155Z,76.32
2023-05-22T08:32:01.240Z,75.92
2023-05-22T08:33:01.228Z,75.92
2023-05-22T08:34:01.088Z,75.72
2023-05-22T08:35:01.058Z,76.12
2023-05-22T08:36:01.082Z,75.82
2023-05-22T08:37:01.094Z,75.98
2023-05-22T08:38:01.057Z,75.89
2023-05-22T08:39:01.030Z,75.62
2023-05-22T08:40:01.028Z,75.38
2023-05-22T08:41:00.992Z,74.72
2023-05-22T08:42:00.999Z,75.89
2023-05-22T08:43:01.001Z,75.32
2023-05-22T08:44:00.973Z,75.62
2023-05-22T08:45:00.979Z,75.22
2023-05-22T08:46:00.947Z,75.32
2023-05-22T08:47:00.996Z,75.18
2023-05-22T08:48:00.948Z,75.72
2023-05-22T08:49:00.910Z,75.48
2023-05-22T08:50:00.915Z,76.22
2023-05-22T08:51:00.888Z,76.72
2023-05-22T08:52:00.915Z,76.12
2023-05-22T08:53:00.877Z,75.62
2023-05-22T08:54:00.858Z,75.72
2023-05-22T08:55:00.856Z,75.62
2023-05-22T08:56:00.839Z,75.62
2023-05-22T08:57:00.856Z,75.59
2023-05-22T08:58:00.826Z,75.59
2023-05-22T08:59:00.859Z,74.82
2023-05-22T09:00:00.809Z,75.38
2023-05-22T09:01:00.832Z,75.22
2023-05-22T09:02:00.796Z,75.82
2023-05-22T09:03:00.966Z,74.72
2023-05-22T09:04:00.846Z,74.98
2023-05-22T09:05:00.750Z,75.59
2023-05-22T09:06:00.743Z,75.02
2023-05-22T09:07:00.728Z,74.98
2023-05-22T09:08:16.235Z,75.82
2023-05-22T09:09:01.728Z,75.52
2023-05-22T09:10:00.692Z,75.52
2023-05-22T09:11:00.683Z,75.62
2023-05-22T09:12:00.663Z,75.32
2023-05-22T09:13:00.650Z,75.22
2023-05-22T09:14:00.654Z,75.42
2023-05-22T09:15:00.680Z,75.72
2023-05-22T09:16:00.679Z,75.72
2023-05-22T09:17:00.643Z,75.82
2023-05-22T09:18:00.651Z,75.02
2023-05-22T09:19:00.652Z,75.62
2023-05-22T09:20:00.595Z,75.85
2023-05-22T09:21:00.623Z,75.46
2023-05-22T09:22:00.574Z,76.15
2023-05-22T09:23:00.570Z,76.26
2023-05-22T09:24:00.561Z,76.26
2023-05-22T09:25:00.554Z,76.06
2023-05-22T09:26:00.548Z,75.56
2023-05-22T09:27:00.522Z,75.65
2023-05-22T09:28:00.497Z,75.56
2023-05-22T09:29:00.578Z,76.02
2023-05-22T09:30:00.484Z,75.62
2023-05-22T09:31:03.232Z,75.26
2023-05-22T09:32:00.456Z,75.72
2023-05-22T09:33:00.511Z,75.82
2023-05-22T09:34:00.439Z,75.62
2023-05-22T09:35:00.408Z,74.82
2023-05-22T09:36:00.405Z,75.72
2023-05-22T09:37:00.420Z,75.52
2023-05-22T09:38:00.406Z,74.92
2023-05-22T09:39:00.396Z,75.46
2023-05-22T09:40:00.363Z,75.76
2023-05-22T09:41:00.338Z,75.59
2023-05-22T09:42:00.377Z,76.09
2023-05-22T09:43:00.334Z,76.19
2023-05-22T09:44:01.932Z,76.29
2023-05-22T09:45:00.323Z,76.53
2023-05-22T09:46:00.388Z,75.99
2023-05-22T09:47:00.469Z,76.33
2023-05-22T09:48:00.416Z,76.19
2023-05-22T09:49:00.270Z,76.19
2023-05-22T09:50:00.258Z,76.33
2023-05-22T09:51:00.307Z,76.29
2023-05-22T09:52:00.229Z,76.13
2023-05-22T09:53:00.234Z,76.33
2023-05-22T09:54:00.213Z,76.33
2023-05-22T09:55:00.240Z,76.29
2023-05-22T09:56:00.412Z,76.19
2023-05-22T09:57:00.164Z,76.19
2023-05-22T09:58:00.189Z,75.33
2023-05-22T09:59:00.182Z,75.59
2023-05-22T10:00:00.203Z,76.09
2023-05-22T10:01:00.175Z,76.23
2023-05-22T10:02:00.205Z,76.29
2023-05-22T10:03:00.190Z,76.09
2023-05-22T10:04:00.167Z,75.89
2023-05-22T10:05:00.165Z,76.09
2023-05-22T10:06:00.090Z,75.49
2023-05-22T10:07:00.071Z,76.19
2023-05-22T10:08:00.061Z,75.89
2023-05-22T10:09:00.052Z,75.69
2023-05-22T10:10:00.046Z,75.69
2023-05-22T10:11:00.060Z,75.89
2023-05-22T10:12:00.041Z,75.39
2023-05-22T10:12:59.995Z,75.49
2023-05-22T10:13:59.996Z,75.69
2023-05-22T10:14:59.983Z,75.99
2023-05-22T10:16:00.140Z,75.99
2023-05-22T10:16:59.978Z,76.09
2023-05-22T10:18:00.033Z,75.96
2023-05-22T10:19:00.102Z,75.29
2023-05-22T10:19:59.933Z,75.79
2023-05-22T10:20:59.901Z,75.79
2023-05-22T10:21:59.927Z,75.49
2023-05-22T10:22:59.920Z,75.99
2023-05-22T10:23:59.869Z,75.89
2023-05-22T10:24:59.890Z,76.09
2023-05-22T10:25:59.873Z,75.69
2023-05-22T10:26:59.873Z,75.29
2023-05-22T10:27:59.841Z,75.89
2023-05-22T10:28:59.821Z,75.39
2023-05-22T10:29:59.799Z,75.26
2023-05-22T10:30:59.818Z,75.46
2023-05-22T10:31:59.827Z,75.39
2023-05-22T10:32:59.851Z,75.96
2023-05-22T10:33:59.828Z,75.56
2023-05-22T10:34:59.872Z,75.26
2023-05-22T10:35:59.739Z,75.72
2023-05-22T10:37:13.230Z,75.22
2023-05-22T10:38:00.724Z,74.62
2023-05-22T10:38:59.725Z,74.62
2023-05-22T10:39:59.691Z,74.02
2023-05-22T10:40:59.684Z,73.82
2023-05-22T10:41:59.697Z,74.19
2023-05-22T10:42:59.682Z,73.92
2023-05-22T10:43:59.664Z,74.62
2023-05-22T10:44:59.646Z,74.49
2023-05-22T10:45:59.661Z,73.62
2023-05-22T10:46:59.723Z,73.62
2023-05-22T10:47:59.680Z,74.62
2023-05-22T10:48:59.612Z,75.32
2023-05-22T10:49:59.583Z,75.02
2023-05-22T10:51:00.043Z,75.12
2023-05-22T10:51:59.626Z,75.12
2023-05-22T10:52:59.565Z,74.22
2023-05-22T10:53:59.554Z,74.62
2023-05-22T10:54:59.534Z,74.52
2023-05-22T10:55:59.540Z,74.62
2023-05-22T10:56:59.554Z,74.72
2023-05-22T10:57:59.529Z,74.12
2023-05-22T10:58:59.505Z,74.32
2023-05-22T10:59:59.485Z,74.82
2023-05-22T11:00:59.500Z,75.12
2023-05-22T11:01:59.548Z,74.46
2023-05-22T11:03:09.944Z,74.52
2023-05-22T11:04:00.443Z,74.62
2023-05-22T11:04:59.445Z,74.72
2023-05-22T11:05:59.406Z,74.62
2023-05-22T11:06:59.549Z,74.72
2023-05-22T11:07:59.394Z,74.52
2023-05-22T11:08:59.404Z,74.62
2023-05-22T11:09:59.386Z,74.82
2023-05-22T11:10:59.461Z,74.72
2023-05-22T11:11:59.397Z,74.38
2023-05-22T11:12:59.345Z,74.58
2023-05-22T11:13:59.336Z,73.79
2023-05-22T11:14:59.359Z,73.79
2023-05-22T11:15:59.310Z,73.75
2023-05-22T11:16:59.348Z,73.55
2023-05-22T11:17:59.386Z,72.95
2023-05-22T11:19:00.673Z,72.45
2023-05-22T11:20:00.456Z,72.25
2023-05-22T11:20:59.247Z,72.55
2023-05-22T11:21:59.537Z,72.75
2023-05-22T11:22:59.372Z,73.55
2023-05-22T11:23:59.214Z,73.55
2023-05-22T11:24:59.202Z,72.92
2023-05-22T11:25:59.227Z,72.62
2023-05-22T11:26:59.262Z,72.81
2023-05-22T11:27:59.217Z,72.81
2023-05-22T11:28:59.169Z,72.42
2023-05-22T11:29:59.164Z,71.89
2023-05-22T11:30:59.253Z,72.28
2023-05-22T11:31:59.154Z,70.89
2023-05-22T11:32:59.213Z,70.95
2023-05-22T11:33:59.109Z,70.86
2023-05-22T11:34:59.093Z,70.56
2023-05-22T11:35:59.087Z,70.45
2023-05-22T11:36:59.106Z,70.56
2023-05-22T11:37:59.064Z,70.16
2023-05-22T11:38:59.189Z,70.45
2023-05-22T11:39:59.049Z,70.39
2023-05-22T11:40:59.039Z,71.19
2023-05-22T11:41:59.036Z,70.79
2023-05-22T11:42:59.032Z,71.29
2023-05-22T11:43:59.007Z,71.19
2023-05-22T11:44:59.000Z,71.09
2023-05-22T11:45:58.982Z,70.89
2023-05-22T11:46:58.976Z,71.29
2023-05-22T11:47:58.996Z,70.89
2023-05-22T11:48:58.955Z,71.15
2023-05-22T11:49:58.921Z,71.05
2023-05-22T11:50:59.053Z,71.22
2023-05-22T11:51:58.926Z,70.92
2023-05-22T11:52:58.910Z,70.75
2023-05-22T11:53:58.922Z,70.52
2023-05-22T11:54:58.916Z,70.42
2023-05-22T11:55:58.914Z,70.62
2023-05-22T11:56:58.879Z,70.22
2023-05-22T11:57:58.839Z,70.03
2023-05-22T11:58:58.817Z,69.82
2023-05-22T11:59:58.845Z,70.22
2023-05-22T12:00:58.823Z,70.59
2023-05-22T12:01:58.813Z,70.29
2023-05-22T12:02:58.999Z,69.79
2023-05-22T12:03:58.817Z,69.76
2023-05-22T12:04:58.761Z,69.56
2023-05-22T12:05:58.774Z,68.76
2023-05-22T12:06:58.810Z,68.23
2023-05-22T12:07:58.782Z,68.46
2023-05-22T12:08:58.701Z,69.13
2023-05-22T12:09:58.703Z,68.16
2023-05-22T12:10:58.815Z,68.46
2023-05-22T12:11:58.718Z,68.23
2023-05-22T12:12:58.710Z,68.23
2023-05-22T12:13:58.662Z,68.73
2023-05-22T12:14:58.658Z,68.53
2023-05-22T12:15:58.652Z,68.73
2023-05-22T12:16:58.779Z,67.44
2023-05-22T12:17:58.657Z,68.04
2023-05-22T12:18:58.643Z,68.73
2023-05-22T12:19:58.648Z,68.20
2023-05-22T12:20:58.573Z,67.90
2023-05-22T12:21:58.577Z,68.00
2023-05-22T12:22:58.592Z,68.07
2023-05-22T12:23:58.562Z,67.87
2023-05-22T12:24:58.615Z,67.83
2023-05-22T12:25:58.552Z,67.14
2023-05-22T12:26:58.640Z,67.14
2023-05-22T12:27:58.610Z,66.94
2023-05-22T12:28:58.490Z,67.11
2023-05-22T12:29:58.525Z,66.31
2023-05-22T12:30:58.464Z,66.08
2023-05-22T12:31:58.474Z,65.89
2023-05-22T12:32:58.589Z,65.59
2023-05-22T12:33:58.460Z,65.59
2023-05-22T12:34:58.437Z,65.36
2023-05-22T12:35:58.454Z,64.96
2023-05-22T12:36:58.401Z,65.16
2023-05-22T12:37:58.401Z,64.76
2023-05-22T12:38:58.390Z,64.86
2023-05-22T12:39:58.383Z,65.26
2023-05-22T12:40:58.363Z,65.13
2023-05-22T12:41:58.358Z,65.13
2023-05-22T12:42:58.511Z,64.63
2023-05-22T12:43:58.339Z,64.63
2023-05-22T12:44:58.374Z,63.84
2023-05-22T12:45:59.806Z,64.23
2023-05-22T12:46:58.305Z,63.64
2023-05-22T12:47:58.416Z,64.73
2023-05-22T12:48:58.284Z,64.93
2023-05-22T12:49:58.270Z,64.73
2023-05-22T12:50:58.250Z,65.03
2023-05-22T12:51:58.233Z,65.03